Time;durP1;ratioP1;P1;durP2;ratioP2;P2;SDS_P1;SDS_P2;PMS_P1;PMS_P2;Temp;Humidity;BMP_temperature;BMP_pressure;BME280_temperature;BME280_humidity;BME280_pressure;Samples;Min_cycle;Max_cycle;Signal;HPM_P1;HPM_P2
2022/10/11 00:02:17;;;;;;;11.23;5.07;;;;;;;;;;4976364;28;20041;-76
2022/10/11 00:04:43;;;;;;;12.25;4.22;;;;;;;;;;4976269;28;20120;-76
2022/10/11 00:07:09;;;;;;;15.73;4.85;;;;;;;;;;4974829;28;20031;-76
2022/10/11 00:09:35;;;;;;;12.68;4.43;;;;;;;;;;4976406;28;20097;-76
2022/10/11 00:12:01;;;;;;;13.10;4.78;;;;;;;;;;4992072;28;20027;-76
2022/10/11 00:14:27;;;;;;;11.02;3.85;;;;;;;;;;4995650;28;20102;-76
2022/10/11 00:16:54;;;;;;;10.80;3.42;;;;;;;;;;4995703;28;20050;-77
2022/10/11 00:19:20;;;;;;;10.73;4.30;;;;;;;;;;4995997;28;20023;-76
2022/10/11 00:21:46;;;;;;;12.38;4.32;;;;;;;;;;4993314;28;20030;-76
2022/10/11 00:24:14;;;;;;;9.90;4.57;;;;;;;;;;4995560;28;20092;-76
2022/10/11 00:26:40;;;;;;;15.40;4.05;;;;;;;;;;4995619;28;20140;-76
2022/10/11 00:29:07;;;;;;;11.90;4.10;;;;;;;;;;4994086;28;20080;-76
2022/10/11 00:31:33;;;;;;;10.07;3.95;;;;;;;;;;4994436;28;20037;-76
2022/10/11 00:33:59;;;;;;;7.90;3.97;;;;;;;;;;4995234;28;20026;-76
2022/10/11 00:36:25;;;;;;;12.48;4.03;;;;;;;;;;4995282;28;20027;-77
2022/10/11 00:38:51;;;;;;;14.57;4.35;;;;;;;;;;4994130;28;20399;-76
2022/10/11 00:41:17;;;;;;;12.40;4.00;;;;;;;;;;4995085;28;20035;-76
2022/10/11 00:43:44;;;;;;;9.80;4.18;;;;;;;;;;4993724;28;20034;-76
2022/10/11 00:46:18;;;;;;;15.93;4.55;;;;;;;;;;4994789;28;20049;-76
2022/10/11 00:48:55;;;;;;;13.52;3.70;;;;;;;;;;4995022;28;20049;-76
2022/10/11 00:51:24;;;;;;;11.23;3.53;;;;;;;;;;4994818;28;20030;-76
2022/10/11 00:53:51;;;;;;;13.63;4.15;;;;;;;;;;4995304;28;20018;-76
2022/10/11 00:56:23;;;;;;;10.05;3.60;;;;;;;;;;4995005;28;20537;-76
2022/10/11 00:58:49;;;;;;;8.95;3.80;;;;;;;;;;4994758;28;20026;-76
2022/10/11 01:01:15;;;;;;;9.90;4.22;;;;;;;;;;4994652;28;20019;-76
2022/10/11 01:03:42;;;;;;;11.68;3.65;;;;;;;;;;4994666;28;20034;-76
2022/10/11 01:06:09;;;;;;;12.95;3.75;;;;;;;;;;4994632;28;20025;-76
2022/10/11 01:08:35;;;;;;;9.98;3.47;;;;;;;;;;4993469;28;20062;-76
2022/10/11 01:11:01;;;;;;;10.30;3.35;;;;;;;;;;4986678;28;20038;-76
2022/10/11 01:13:36;;;;;;;12.23;4.13;;;;;;;;;;4975140;28;20027;-76
2022/10/11 01:16:22;;;;;;;9.52;3.67;;;;;;;;;;4974072;28;20105;-76
2022/10/11 01:19:00;;;;;;;10.05;3.70;;;;;;;;;;4973877;28;20030;-76
2022/10/11 01:21:29;;;;;;;15.60;4.10;;;;;;;;;;4974713;28;20046;-76
2022/10/11 01:24:14;;;;;;;12.70;3.63;;;;;;;;;;4975055;28;20378;-76
2022/10/11 01:26:46;;;;;;;13.60;3.63;;;;;;;;;;4974923;28;20062;-76
2022/10/11 01:29:25;;;;;;;14.30;3.72;;;;;;;;;;4973573;28;20047;-76
2022/10/11 01:31:58;;;;;;;9.93;3.80;;;;;;;;;;4973483;28;20093;-76
2022/10/11 01:34:28;;;;;;;14.43;4.40;;;;;;;;;;4974685;28;20031;-76
2022/10/11 01:37:03;;;;;;;11.45;4.18;;;;;;;;;;4974756;28;20027;-76
2022/10/11 01:39:35;;;;;;;10.02;3.80;;;;;;;;;;4974827;28;20118;-76
2022/10/11 01:42:03;;;;;;;10.77;3.60;;;;;;;;;;4974651;28;20023;-76
2022/10/11 01:44:29;;;;;;;8.70;3.72;;;;;;;;;;4973340;28;20037;-76
2022/10/11 01:46:56;;;;;;;10.57;3.72;;;;;;;;;;4974569;28;20470;-76
2022/10/11 01:49:22;;;;;;;10.57;3.50;;;;;;;;;;4974338;28;20027;-76
2022/10/11 01:51:50;;;;;;;9.90;3.30;;;;;;;;;;4974221;28;20377;-76
2022/10/11 01:54:16;;;;;;;7.68;3.25;;;;;;;;;;4974372;28;20077;-76
2022/10/11 01:56:45;;;;;;;9.98;3.50;;;;;;;;;;4974218;28;20038;-76
2022/10/11 01:59:18;;;;;;;10.98;3.58;;;;;;;;;;4977764;28;20053;-76
2022/10/11 02:01:50;;;;;;;8.35;3.50;;;;;;;;;;4993683;28;20101;-76
2022/10/11 02:04:33;;;;;;;14.07;3.45;;;;;;;;;;4992558;28;20369;-77
2022/10/11 02:06:59;;;;;;;10.25;3.22;;;;;;;;;;4993669;28;20037;-76
2022/10/11 02:09:37;;;;;;;9.75;3.60;;;;;;;;;;4993430;28;20034;-77
2022/10/11 02:12:06;;;;;;;9.93;3.35;;;;;;;;;;4993514;28;20034;-76
2022/10/11 02:14:36;;;;;;;10.25;3.47;;;;;;;;;;4993487;28;20026;-76
2022/10/11 02:17:06;;;;;;;13.60;3.63;;;;;;;;;;4992242;28;20464;-76
2022/10/11 02:19:35;;;;;;;9.45;3.20;;;;;;;;;;4993443;28;20022;-76
2022/10/11 02:22:03;;;;;;;8.10;3.03;;;;;;;;;;4992721;28;20499;-76
2022/10/11 02:24:34;;;;;;;7.30;3.10;;;;;;;;;;4993367;28;20109;-77
2022/10/11 02:27:01;;;;;;;13.68;3.78;;;;;;;;;;4993474;28;20026;-76
2022/10/11 02:29:28;;;;;;;9.13;3.42;;;;;;;;;;4993129;28;20058;-77
2022/10/11 02:31:56;;;;;;;12.68;4.22;;;;;;;;;;4993375;28;20062;-76
2022/10/11 02:34:34;;;;;;;12.23;3.35;;;;;;;;;;4993381;28;20073;-76
2022/10/11 02:37:11;;;;;;;8.23;3.88;;;;;;;;;;4993193;28;20507;-76
2022/10/11 02:39:44;;;;;;;8.07;3.58;;;;;;;;;;4993094;28;20089;-77
2022/10/11 02:42:13;;;;;;;6.28;3.22;;;;;;;;;;4993099;28;20087;-76
2022/10/11 02:45:01;;;;;;;9.27;3.30;;;;;;;;;;4993167;28;20033;-76
2022/10/11 02:47:28;;;;;;;9.57;3.55;;;;;;;;;;4993190;28;20061;-76
2022/10/11 02:49:54;;;;;;;8.00;3.22;;;;;;;;;;4993291;28;20030;-76
2022/10/11 02:52:20;;;;;;;7.55;3.20;;;;;;;;;;4991824;28;20369;-77
2022/10/11 02:54:46;;;;;;;11.35;3.40;;;;;;;;;;4991248;28;20418;-76
2022/10/11 02:57:13;;;;;;;10.90;3.58;;;;;;;;;;4991585;28;20462;-76
2022/10/11 02:59:39;;;;;;;13.18;3.50;;;;;;;;;;4985977;28;20101;-76
2022/10/11 03:02:05;;;;;;;10.82;3.50;;;;;;;;;;4973392;28;20162;-76
2022/10/11 03:04:31;;;;;;;14.10;3.90;;;;;;;;;;4973585;28;20068;-77
2022/10/11 03:06:57;;;;;;;9.68;3.50;;;;;;;;;;4988239;28;20027;-77
2022/10/11 03:09:23;;;;;;;13.75;3.47;;;;;;;;;;4973322;28;20023;-77
2022/10/11 03:11:49;;;;;;;11.93;3.28;;;;;;;;;;4987907;28;20031;-76
2022/10/11 03:14:15;;;;;;;12.63;3.20;;;;;;;;;;4993056;28;20030;-76
2022/10/11 03:16:41;;;;;;;11.95;3.17;;;;;;;;;;4992991;28;20022;-77
2022/10/11 03:19:07;;;;;;;14.43;3.85;;;;;;;;;;4991457;28;20085;-77
2022/10/11 03:21:33;;;;;;;9.73;3.13;;;;;;;;;;4984909;28;20469;-77
2022/10/11 03:23:59;;;;;;;8.75;3.70;;;;;;;;;;4973354;28;20474;-76
2022/10/11 03:26:25;;;;;;;7.47;3.10;;;;;;;;;;4988100;28;20046;-76
2022/10/11 03:28:51;;;;;;;8.45;3.00;;;;;;;;;;4973202;28;20031;-76
2022/10/11 03:31:17;;;;;;;15.27;3.97;;;;;;;;;;4972969;28;20110;-76
2022/10/11 03:33:43;;;;;;;11.35;3.53;;;;;;;;;;4973297;28;20059;-76
2022/10/11 03:36:09;;;;;;;7.65;3.53;;;;;;;;;;4972990;28;20031;-76
2022/10/11 03:38:35;;;;;;;9.15;4.35;;;;;;;;;;4973104;28;20023;-77
2022/10/11 03:41:01;;;;;;;8.38;3.10;;;;;;;;;;4973086;28;20030;-76
2022/10/11 03:43:28;;;;;;;10.48;3.30;;;;;;;;;;4973324;28;20038;-76
2022/10/11 03:45:54;;;;;;;9.02;3.30;;;;;;;;;;4971864;28;20038;-76
2022/10/11 03:48:20;;;;;;;7.15;3.25;;;;;;;;;;4973160;28;20055;-76
2022/10/11 03:50:46;;;;;;;12.73;3.58;;;;;;;;;;4972980;28;20133;-76
2022/10/11 03:53:12;;;;;;;11.27;3.60;;;;;;;;;;4973208;28;20027;-77
2022/10/11 03:55:39;;;;;;;8.20;3.20;;;;;;;;;;4972904;28;20023;-77
2022/10/11 03:58:05;;;;;;;9.85;3.20;;;;;;;;;;4972645;28;20132;-77
2022/10/11 04:00:31;;;;;;;7.78;3.15;;;;;;;;;;4986720;28;20494;-77
2022/10/11 04:02:58;;;;;;;10.75;3.75;;;;;;;;;;4990986;28;20045;-76
2022/10/11 04:05:24;;;;;;;8.90;3.97;;;;;;;;;;4992322;28;20485;-76
2022/10/11 04:07:50;;;;;;;12.55;3.78;;;;;;;;;;4995434;28;20018;-76
2022/10/11 04:10:16;;;;;;;10.15;3.35;;;;;;;;;;4995625;28;20018;-76
2022/10/11 04:12:43;;;;;;;8.55;3.55;;;;;;;;;;4995778;28;20034;-76
2022/10/11 04:15:12;;;;;;;10.45;3.08;;;;;;;;;;4995748;28;20077;-76
2022/10/11 04:17:38;;;;;;;9.45;3.35;;;;;;;;;;4995471;28;20023;-76
2022/10/11 04:20:04;;;;;;;7.53;3.00;;;;;;;;;;4995995;28;20027;-76
2022/10/11 04:22:31;;;;;;;10.80;3.60;;;;;;;;;;4994972;28;20026;-76
2022/10/11 04:24:57;;;;;;;9.93;3.22;;;;;;;;;;4995617;28;20034;-76
2022/10/11 04:27:23;;;;;;;9.40;3.42;;;;;;;;;;4995558;28;20068;-76
2022/10/11 04:29:49;;;;;;;11.30;3.50;;;;;;;;;;4995344;28;20074;-76
2022/10/11 04:32:15;;;;;;;13.48;2.90;;;;;;;;;;4995576;28;20129;-76
2022/10/11 04:34:41;;;;;;;6.35;3.05;;;;;;;;;;4994126;28;20079;-76
2022/10/11 04:37:07;;;;;;;7.88;3.03;;;;;;;;;;4995107;28;20018;-76
2022/10/11 04:39:33;;;;;;;6.55;3.22;;;;;;;;;;4995427;28;20034;-76
2022/10/11 04:41:59;;;;;;;7.18;3.13;;;;;;;;;;4995362;28;20048;-76
2022/10/11 04:44:25;;;;;;;11.00;3.00;;;;;;;;;;4995248;28;20034;-76
2022/10/11 04:46:51;;;;;;;8.93;3.10;;;;;;;;;;4995145;28;20045;-76
2022/10/11 04:49:17;;;;;;;7.38;2.80;;;;;;;;;;4994943;28;20061;-76
2022/10/11 04:51:44;;;;;;;7.60;2.75;;;;;;;;;;4994985;28;20449;-76
2022/10/11 04:54:10;;;;;;;15.75;3.33;;;;;;;;;;4994999;28;20022;-76
2022/10/11 04:56:36;;;;;;;9.32;3.20;;;;;;;;;;4995065;28;20381;-76
2022/10/11 04:59:02;;;;;;;7.22;3.03;;;;;;;;;;4995089;28;20487;-76
2022/10/11 05:01:28;;;;;;;11.98;3.00;;;;;;;;;;4994722;28;20026;-76
2022/10/11 05:03:54;;;;;;;9.57;3.08;;;;;;;;;;4977499;28;20440;-76
2022/10/11 05:06:20;;;;;;;6.38;2.70;;;;;;;;;;4994836;28;20034;-76
2022/10/11 05:08:46;;;;;;;10.57;3.72;;;;;;;;;;4977624;28;20116;-76
2022/10/11 05:11:14;;;;;;;7.90;2.92;;;;;;;;;;4983425;28;20157;-76
2022/10/11 05:13:40;;;;;;;8.85;3.28;;;;;;;;;;4975414;28;20187;-76
2022/10/11 05:16:06;;;;;;;10.63;3.85;;;;;;;;;;4975337;28;20474;-76
2022/10/11 05:18:32;;;;;;;13.90;3.13;;;;;;;;;;4973698;28;20031;-76
2022/10/11 05:21:02;;;;;;;10.70;3.40;;;;;;;;;;4978143;28;20109;-76
2022/10/11 05:23:29;;;;;;;12.77;3.85;;;;;;;;;;4994366;28;20050;-77
2022/10/11 05:25:55;;;;;;;11.25;3.83;;;;;;;;;;4994468;28;20030;-77
2022/10/11 05:28:21;;;;;;;14.40;3.60;;;;;;;;;;4994602;28;20039;-76
2022/10/11 05:30:47;;;;;;;12.15;3.83;;;;;;;;;;4993977;28;20077;-76
2022/10/11 05:33:13;;;;;;;12.00;3.90;;;;;;;;;;4992694;28;20089;-76
2022/10/11 05:35:39;;;;;;;10.98;3.50;;;;;;;;;;4993775;28;20033;-76
2022/10/11 05:38:05;;;;;;;14.85;4.15;;;;;;;;;;4993873;28;20026;-76
2022/10/11 05:40:32;;;;;;;11.93;4.30;;;;;;;;;;4993749;28;20026;-77
2022/10/11 05:42:58;;;;;;;9.68;4.13;;;;;;;;;;4994048;28;20026;-76
2022/10/11 05:45:24;;;;;;;9.38;4.60;;;;;;;;;;4994013;28;20485;-76
2022/10/11 05:47:50;;;;;;;12.10;5.10;;;;;;;;;;4993885;28;20033;-76
2022/10/11 05:50:16;;;;;;;20.13;5.60;;;;;;;;;;4992508;28;20523;-76
2022/10/11 05:52:42;;;;;;;22.85;7.45;;;;;;;;;;4993524;28;20076;-76
2022/10/11 05:55:08;;;;;;;18.27;6.07;;;;;;;;;;4993839;28;20085;-76
2022/10/11 05:57:34;;;;;;;25.45;6.88;;;;;;;;;;4979351;28;20039;-76
2022/10/11 06:00:00;;;;;;;19.75;6.03;;;;;;;;;;4983910;28;20027;-76
2022/10/11 06:02:26;;;;;;;21.95;6.10;;;;;;;;;;4993613;28;20026;-76
2022/10/11 06:04:52;;;;;;;17.10;5.88;;;;;;;;;;4993787;28;20026;-77
2022/10/11 06:07:18;;;;;;;19.35;6.40;;;;;;;;;;4992431;28;20034;-77
2022/10/11 06:09:45;;;;;;;18.92;6.68;;;;;;;;;;4993811;28;20049;-77
2022/10/11 06:12:11;;;;;;;14.02;5.70;;;;;;;;;;4985846;28;20018;-76
2022/10/11 06:14:37;;;;;;;19.67;6.95;;;;;;;;;;4972051;28;20117;-77
2022/10/11 06:17:03;;;;;;;21.15;7.35;;;;;;;;;;4973514;28;20038;-77
2022/10/11 06:19:29;;;;;;;18.65;6.68;;;;;;;;;;4973519;28;20023;-77
2022/10/11 06:21:55;;;;;;;20.52;7.22;;;;;;;;;;4978675;28;20041;-76
2022/10/11 06:24:21;;;;;;;25.73;7.65;;;;;;;;;;4981142;28;20031;-76
2022/10/11 06:26:48;;;;;;;37.40;9.90;;;;;;;;;;4985800;28;20034;-76
2022/10/11 06:29:14;;;;;;;25.70;9.60;;;;;;;;;;4981526;28;20885;-77
2022/10/11 06:31:40;;;;;;;28.17;9.43;;;;;;;;;;4980668;28;20058;-77
2022/10/11 06:34:06;;;;;;;24.83;9.02;;;;;;;;;;4992598;28;20480;-77
2022/10/11 06:36:32;;;;;;;24.85;8.10;;;;;;;;;;4991982;28;20046;-77
2022/10/11 06:39:00;;;;;;;26.20;9.27;;;;;;;;;;4973459;28;20504;-77
2022/10/11 06:41:27;;;;;;;33.78;10.10;;;;;;;;;;4973950;28;20026;-77
2022/10/11 06:43:54;;;;;;;27.92;9.55;;;;;;;;;;4992487;28;20025;-77
2022/10/11 06:46:20;;;;;;;28.95;9.95;;;;;;;;;;4992847;28;20519;-77
2022/10/11 06:48:49;;;;;;;29.63;10.75;;;;;;;;;;4993031;28;20463;-77
2022/10/11 06:51:17;;;;;;;27.58;9.07;;;;;;;;;;4993074;28;20030;-77
2022/10/11 06:53:43;;;;;;;27.67;9.85;;;;;;;;;;4993329;28;20026;-77
2022/10/11 06:56:12;;;;;;;28.20;9.02;;;;;;;;;;4991579;28;20547;-77
2022/10/11 06:58:39;;;;;;;22.25;8.70;;;;;;;;;;4993187;28;20065;-77
2022/10/11 07:01:06;;;;;;;24.58;9.52;;;;;;;;;;4992923;28;20049;-77
2022/10/11 07:03:32;;;;;;;24.75;8.82;;;;;;;;;;4993066;28;20033;-77
2022/10/11 07:05:59;;;;;;;25.27;8.63;;;;;;;;;;4991149;28;20113;-77
2022/10/11 07:08:25;;;;;;;35.80;9.95;;;;;;;;;;4992874;28;20034;-77
2022/10/11 07:10:51;;;;;;;40.17;11.88;;;;;;;;;;4988556;28;20589;-77
2022/10/11 07:13:17;;;;;;;34.90;10.73;;;;;;;;;;4991727;28;20462;-78
2022/10/11 07:15:44;;;;;;;36.45;11.68;;;;;;;;;;4991679;28;20027;-77
2022/10/11 07:18:10;;;;;;;33.92;10.07;;;;;;;;;;4986937;28;20054;-77
2022/10/11 07:20:36;;;;;;;36.95;11.90;;;;;;;;;;4983093;28;20136;-77
2022/10/11 07:23:02;;;;;;;32.00;10.35;;;;;;;;;;4973322;28;20022;-77
2022/10/11 07:25:28;;;;;;;35.72;11.18;;;;;;;;;;4988989;28;20023;-77
2022/10/11 07:27:54;;;;;;;27.58;9.98;;;;;;;;;;4992662;28;20034;-77
2022/10/11 07:30:20;;;;;;;33.30;10.23;;;;;;;;;;4992641;28;20456;-77
2022/10/11 07:32:46;;;;;;;31.02;11.52;;;;;;;;;;4982928;28;20045;-77
2022/10/11 07:35:12;;;;;;;34.05;10.40;;;;;;;;;;4980490;28;20053;-77
2022/10/11 07:37:38;;;;;;;27.15;10.02;;;;;;;;;;4977161;28;20023;-77
2022/10/11 07:40:05;;;;;;;35.63;10.68;;;;;;;;;;4983735;28;20023;-77
2022/10/11 07:42:32;;;;;;;27.40;10.20;;;;;;;;;;4979057;28;20050;-77
2022/10/11 07:44:58;;;;;;;27.25;10.23;;;;;;;;;;4976264;28;20026;-77
2022/10/11 07:47:24;;;;;;;32.03;10.70;;;;;;;;;;4981412;28;20034;-77
2022/10/11 07:49:50;;;;;;;32.70;9.95;;;;;;;;;;4989338;28;20505;-77
2022/10/11 07:52:16;;;;;;;30.30;10.15;;;;;;;;;;4996262;28;20045;-77
2022/10/11 07:54:43;;;;;;;22.73;9.13;;;;;;;;;;4996269;28;20026;-78
2022/10/11 07:57:09;;;;;;;26.63;10.10;;;;;;;;;;4995164;28;20169;-77
2022/10/11 07:59:35;;;;;;;23.67;8.85;;;;;;;;;;4996702;28;20034;-77
2022/10/11 08:02:01;;;;;;;25.27;8.77;;;;;;;;;;4996158;28;20023;-77
2022/10/11 08:04:27;;;;;;;24.90;9.40;;;;;;;;;;4996163;28;20022;-81
2022/10/11 08:06:53;;;;;;;28.80;8.45;;;;;;;;;;4996815;28;20022;-79
2022/10/11 08:09:19;;;;;;;28.50;9.98;;;;;;;;;;5014636;28;20022;-80
2022/10/11 08:11:45;;;;;;;19.48;7.47;;;;;;;;;;5015496;28;20026;-80
2022/10/11 08:14:11;;;;;;;26.20;9.57;;;;;;;;;;5014838;28;20033;-80
2022/10/11 08:16:38;;;;;;;32.28;8.52;;;;;;;;;;5014697;28;20022;-80
2022/10/11 08:19:04;;;;;;;22.95;8.93;;;;;;;;;;4997781;28;20366;-80
2022/10/11 08:21:31;;;;;;;24.90;8.18;;;;;;;;;;4993587;28;20073;-79
2022/10/11 08:23:57;;;;;;;24.27;7.68;;;;;;;;;;4995611;28;20048;-79
2022/10/11 08:26:23;;;;;;;32.58;9.68;;;;;;;;;;4993960;28;20031;-79
2022/10/11 08:28:50;;;;;;;40.47;8.85;;;;;;;;;;4995482;28;20034;-80
2022/10/11 08:31:16;;;;;;;24.83;7.95;;;;;;;;;;4995329;28;20492;-79
2022/10/11 08:33:42;;;;;;;21.35;8.02;;;;;;;;;;4994340;28;20113;-79
2022/10/11 08:36:08;;;;;;;18.90;6.97;;;;;;;;;;4995245;28;20037;-79
2022/10/11 08:38:35;;;;;;;20.58;6.88;;;;;;;;;;4995497;28;20062;-80
2022/10/11 08:41:02;;;;;;;22.85;6.38;;;;;;;;;;4995517;28;20033;-80
2022/10/11 08:43:43;;;;;;;21.45;6.18;;;;;;;;;;4995561;28;20041;-79
2022/10/11 08:46:10;;;;;;;22.13;5.75;;;;;;;;;;4994022;28;20022;-79
2022/10/11 08:48:41;;;;;;;26.52;5.63;;;;;;;;;;4994911;28;20027;-80
2022/10/11 08:51:17;;;;;;;15.97;5.13;;;;;;;;;;4994734;28;20480;-79
2022/10/11 08:53:51;;;;;;;17.80;5.00;;;;;;;;;;4994877;28;20019;-79
2022/10/11 08:56:18;;;;;;;20.27;4.53;;;;;;;;;;4984988;28;20022;-79
2022/10/11 08:59:17;;;;;;;18.77;3.80;;;;;;;;;;4994986;28;20034;-79
2022/10/11 09:01:46;;;;;;;19.00;4.50;;;;;;;;;;4960903;28;20057;-79
2022/10/11 09:04:13;;;;;;;17.75;4.07;;;;;;;;;;4992873;28;20022;-80
2022/10/11 09:06:47;;;;;;;14.88;3.95;;;;;;;;;;4992248;28;20064;-80
2022/10/11 09:09:29;;;;;;;12.93;3.42;;;;;;;;;;4991818;28;20105;-80
2022/10/11 09:11:55;;;;;;;18.33;3.75;;;;;;;;;;4994353;28;20030;-80
2022/10/11 09:14:33;;;;;;;21.65;3.92;;;;;;;;;;4995035;28;20037;-84
2022/10/11 09:17:18;;;;;;;23.67;4.28;;;;;;;;;;4991869;28;20031;-77
2022/10/11 09:19:44;;;;;;;15.93;3.38;;;;;;;;;;4990912;28;20034;-76
2022/10/11 09:22:22;;;;;;;18.05;3.63;;;;;;;;;;4985445;28;20041;-75
2022/10/11 09:25:00;;;;;;;24.65;3.55;;;;;;;;;;4984762;28;20115;-76
2022/10/11 09:27:49;;;;;;;19.98;3.70;;;;;;;;;;4992584;28;20019;-76
2022/10/11 09:30:16;;;;;;;15.35;3.28;;;;;;;;;;4961554;28;20120;-74
2022/10/11 09:32:45;;;;;;;16.73;3.88;;;;;;;;;;4991656;28;20022;-74
2022/10/11 09:35:13;;;;;;;27.55;4.00;;;;;;;;;;4980496;28;20030;-74
2022/10/11 09:37:41;;;;;;;14.30;3.05;;;;;;;;;;4973762;28;20026;-74
2022/10/11 09:40:18;;;;;;;17.27;3.80;;;;;;;;;;4990584;28;20033;-74
2022/10/11 09:42:44;;;;;;;15.63;3.35;;;;;;;;;;4993448;28;20041;-74
2022/10/11 09:45:18;;;;;;;23.35;3.90;;;;;;;;;;4993242;28;20026;-74
2022/10/11 09:47:44;;;;;;;13.15;3.90;;;;;;;;;;4993199;28;20485;-74
2022/10/11 09:50:15;;;;;;;13.35;3.42;;;;;;;;;;4992904;28;20033;-74
2022/10/11 09:52:49;;;;;;;17.27;3.97;;;;;;;;;;5002711;28;20030;-74
2022/10/11 09:55:33;;;;;;;20.02;3.65;;;;;;;;;;4987837;28;20023;-76
2022/10/11 09:57:59;;;;;;;23.02;3.80;;;;;;;;;;4973584;28;20077;-76
2022/10/11 10:00:26;;;;;;;19.05;3.53;;;;;;;;;;4988779;28;20030;-77
2022/10/11 10:02:54;;;;;;;10.40;3.00;;;;;;;;;;4983117;28;20090;-76
2022/10/11 10:05:20;;;;;;;14.80;2.60;;;;;;;;;;4984847;28;20022;-76
2022/10/11 10:07:58;;;;;;;8.73;1.60;;;;;;;;;;4987681;28;20073;-76
2022/10/11 10:10:51;;;;;;;14.55;1.55;;;;;;;;;;4983116;28;20133;-76
2022/10/11 10:13:23;;;;;;;12.02;2.50;;;;;;;;;;4990078;28;20049;-76
2022/10/11 10:15:54;;;;;;;8.50;1.25;;;;;;;;;;4989712;28;20030;-76
2022/10/11 10:18:26;;;;;;;10.90;1.50;;;;;;;;;;4973945;28;20436;-77
2022/10/11 10:20:54;;;;;;;13.15;2.67;;;;;;;;;;4988655;28;20026;-76
2022/10/11 10:23:39;;;;;;;14.68;2.30;;;;;;;;;;4988134;28;20034;-79
2022/10/11 10:26:11;;;;;;;9.27;1.70;;;;;;;;;;4987598;28;20027;-78
2022/10/11 10:28:54;;;;;;;13.48;1.30;;;;;;;;;;4990887;28;20030;-82
2022/10/11 10:31:22;;;;;;;9.52;1.23;;;;;;;;;;4993407;28;20050;-84
2022/10/11 10:33:51;;;;;;;11.00;1.65;;;;;;;;;;4993490;28;20413;-84
2022/10/11 10:36:21;;;;;;;14.27;1.80;;;;;;;;;;4993424;28;20125;-84
2022/10/11 10:38:47;;;;;;;17.75;2.22;;;;;;;;;;4993369;28;20029;-84
2022/10/11 10:41:14;;;;;;;11.25;1.40;;;;;;;;;;4993670;28;20037;-86
2022/10/11 10:43:42;;;;;;;9.93;1.65;;;;;;;;;;4992534;28;20100;-85
2022/10/11 10:46:27;;;;;;;9.50;1.70;;;;;;;;;;4991958;28;20026;-85
2022/10/11 10:48:59;;;;;;;11.30;1.60;;;;;;;;;;4993399;28;20045;-86
2022/10/11 10:51:25;;;;;;;8.85;1.77;;;;;;;;;;4991849;28;20037;-86
2022/10/11 10:54:08;;;;;;;10.13;1.77;;;;;;;;;;4991377;28;20384;-84
2022/10/11 10:56:34;;;;;;;;;;;;;;;;;;4984011;28;20432;-85
2022/10/11 10:59:06;;;;;;;13.70;2.17;;;;;;;;;;4975256;28;19909;-85
2022/10/11 11:01:33;;;;;;;9.68;1.70;;;;;;;;;;4978177;28;20507;-85
2022/10/11 11:04:02;;;;;;;13.38;1.92;;;;;;;;;;4991503;28;20068;-85
2022/10/11 11:06:44;;;;;;;14.57;1.75;;;;;;;;;;4993020;28;20065;-84
2022/10/11 11:09:29;;;;;;;10.90;1.67;;;;;;;;;;4991912;28;20033;-85
2022/10/11 11:12:00;;;;;;;12.57;1.63;;;;;;;;;;4992716;28;20033;-85
2022/10/11 11:14:35;;;;;;;12.77;2.72;;;;;;;;;;4991084;28;20026;-85
2022/10/11 11:17:20;;;;;;;9.93;1.80;;;;;;;;;;4997144;28;20022;-87
2022/10/11 11:20:01;;;;;;;7.25;1.25;;;;;;;;;;4986237;28;20015;-87
2022/10/11 11:22:30;;;;;;;9.98;1.42;;;;;;;;;;4998320;28;20046;-76
2022/10/11 11:25:15;;;;;;;12.48;1.65;;;;;;;;;;4989928;28;20387;-76
2022/10/11 11:27:44;;;;;;;9.00;1.58;;;;;;;;;;4979587;28;20077;-76
2022/10/11 11:30:19;;;;;;;9.70;1.55;;;;;;;;;;4977157;28;20125;-76
2022/10/11 11:33:04;;;;;;;10.50;1.48;;;;;;;;;;4977148;28;20031;-76
2022/10/11 11:35:30;;;;;;;12.35;1.60;;;;;;;;;;4977116;28;20023;-75
2022/10/11 11:37:59;;;;;;;11.95;1.80;;;;;;;;;;4978264;28;20457;-82
2022/10/11 11:40:25;;;;;;;9.30;1.30;;;;;;;;;;4977740;28;20023;-82
2022/10/11 11:42:54;;;;;;;10.85;1.92;;;;;;;;;;4977577;28;20390;-83
2022/10/11 11:45:25;;;;;;;10.98;1.30;;;;;;;;;;4977618;28;20027;-82
2022/10/11 11:47:54;;;;;;;6.05;1.48;;;;;;;;;;4977213;28;20712;-81
2022/10/11 11:50:22;;;;;;;13.48;1.50;;;;;;;;;;4977677;28;20434;-83
2022/10/11 11:52:59;;;;;;;15.32;1.75;;;;;;;;;;4976648;28;20027;-86
2022/10/11 11:55:41;;;;;;;7.00;1.20;;;;;;;;;;4977027;28;20047;-86
2022/10/11 11:58:27;;;;;;;10.20;1.67;;;;;;;;;;4992025;28;20437;-86
2022/10/11 12:01:12;;;;;;;9.75;1.67;;;;;;;;;;4966407;28;20054;-85
2022/10/11 12:03:40;;;;;;;14.45;1.55;;;;;;;;;;4975898;28;20090;-82
2022/10/11 12:06:18;;;;;;;9.07;1.60;;;;;;;;;;4975891;28;20047;-81
2022/10/11 12:08:46;;;;;;;10.73;1.90;;;;;;;;;;4983225;28;20092;-77
2022/10/11 12:11:29;;;;;;;11.63;1.67;;;;;;;;;;4982577;28;20034;-78
2022/10/11 12:13:55;;;;;;;6.97;1.67;;;;;;;;;;4975818;28;20078;-78
2022/10/11 12:16:22;;;;;;;11.85;1.52;;;;;;;;;;4974971;28;20027;-79
2022/10/11 12:18:48;;;;;;;7.18;1.60;;;;;;;;;;4975555;28;20023;-78
2022/10/11 12:21:34;;;;;;;10.27;1.33;;;;;;;;;;4981142;28;20168;-79
2022/10/11 12:24:09;;;;;;;11.73;1.60;;;;;;;;;;4981692;28;20066;-78
2022/10/11 12:26:37;;;;;;;12.52;1.73;;;;;;;;;;4974233;28;20041;-78
2022/10/11 12:29:23;;;;;;;7.70;1.40;;;;;;;;;;4976118;28;20027;-78
2022/10/11 12:31:58;;;;;;;12.20;1.38;;;;;;;;;;4975172;28;20046;-79
2022/10/11 12:34:44;;;;;;;12.73;1.70;;;;;;;;;;4975324;28;20139;-79
2022/10/11 12:37:18;;;;;;;10.85;1.40;;;;;;;;;;4975493;28;20466;-79
2022/10/11 12:39:51;;;;;;;10.98;1.98;;;;;;;;;;4984812;28;20054;-78
2022/10/11 12:42:33;;;;;;;10.98;1.75;;;;;;;;;;4994952;28;20426;-78
2022/10/11 12:44:59;;;;;;;;;;;;;;;;;;4995637;28;20092;-78
2022/10/11 12:47:36;;;;;;;13.80;1.55;;;;;;;;;;4994631;28;19909;-78
2022/10/11 12:50:17;;;;;;;7.18;1.50;;;;;;;;;;4994965;28;20113;-78
2022/10/11 12:52:55;;;;;;;11.98;1.60;;;;;;;;;;4994983;28;20029;-78
2022/10/11 12:55:21;;;;;;;13.32;2.25;;;;;;;;;;4994078;28;20023;-78
2022/10/11 12:57:47;;;;;;;18.75;2.03;;;;;;;;;;4995327;28;20097;-79
2022/10/11 13:00:28;;;;;;;9.65;2.10;;;;;;;;;;4984095;28;20034;-79
2022/10/11 13:02:55;;;;;;;8.43;1.50;;;;;;;;;;4974551;28;20735;-79
2022/10/11 13:05:25;;;;;;;13.23;1.55;;;;;;;;;;4975864;28;20405;-79
2022/10/11 13:07:55;;;;;;;12.18;1.73;;;;;;;;;;4975812;28;20107;-78
2022/10/11 13:10:24;;;;;;;11.27;1.50;;;;;;;;;;4981801;28;20085;-78
2022/10/11 13:12:51;;;;;;;9.60;1.60;;;;;;;;;;4995115;28;20065;-79
2022/10/11 13:15:19;;;;;;;8.70;1.65;;;;;;;;;;4993316;28;20077;-79
2022/10/11 13:17:45;;;;;;;9.05;1.73;;;;;;;;;;4975556;28;20043;-78
2022/10/11 13:20:17;;;;;;;15.20;2.33;;;;;;;;;;4975104;28;20153;-79
2022/10/11 13:22:43;;;;;;;12.85;1.80;;;;;;;;;;4989653;28;20037;-79
2022/10/11 13:25:13;;;;;;;9.23;1.52;;;;;;;;;;4994902;28;20037;-80
2022/10/11 13:27:40;;;;;;;11.25;1.65;;;;;;;;;;4983767;28;20496;-79
2022/10/11 13:30:10;;;;;;;7.82;1.83;;;;;;;;;;4993511;28;20054;-79
2022/10/11 13:32:36;;;;;;;10.48;1.52;;;;;;;;;;4977623;28;20034;-79
2022/10/11 13:35:11;;;;;;;12.57;1.60;;;;;;;;;;4993287;28;20380;-79
2022/10/11 13:37:43;;;;;;;10.48;1.70;;;;;;;;;;4979897;28;20505;-80
2022/10/11 13:40:13;;;;;;;14.13;1.23;;;;;;;;;;4992471;28;20057;-80
2022/10/11 13:42:40;;;;;;;7.97;1.58;;;;;;;;;;4990436;28;20022;-80
2022/10/11 13:45:10;;;;;;;6.45;1.15;;;;;;;;;;4990071;28;20034;-80
2022/10/11 13:47:36;;;;;;;8.40;1.42;;;;;;;;;;4994401;28;20480;-78
2022/10/11 13:50:29;;;;;;;6.85;1.42;;;;;;;;;;4985662;28;20388;-80
2022/10/11 13:52:55;;;;;;;9.85;1.23;;;;;;;;;;4985538;28;20445;-80
2022/10/11 13:55:24;;;;;;;9.20;2.00;;;;;;;;;;4982899;28;20397;-81
2022/10/11 13:57:53;;;;;;;13.25;1.95;;;;;;;;;;4986145;28;20049;-80
2022/10/11 14:00:24;;;;;;;11.52;1.85;;;;;;;;;;4993853;28;20449;-79
2022/10/11 14:02:59;;;;;;;8.70;2.08;;;;;;;;;;4993950;28;20034;-80
2022/10/11 14:05:30;;;;;;;12.25;1.90;;;;;;;;;;4994070;28;20031;-80
2022/10/11 14:07:57;;;;;;;9.07;1.80;;;;;;;;;;4992430;28;20114;-77
2022/10/11 14:10:24;;;;;;;8.15;1.60;;;;;;;;;;4993972;28;20038;-77
2022/10/11 14:13:01;;;;;;;10.95;1.48;;;;;;;;;;4990399;28;20373;-75
2022/10/11 14:15:33;;;;;;;10.98;1.88;;;;;;;;;;4980741;28;20018;-75
2022/10/11 14:17:59;;;;;;;11.50;1.70;;;;;;;;;;4993090;28;20018;-83
2022/10/11 14:20:37;;;;;;;13.50;1.52;;;;;;;;;;4989365;28;20023;-83
2022/10/11 14:23:03;;;;;;;9.45;2.25;;;;;;;;;;4989809;28;20489;-82
2022/10/11 14:25:29;;;;;;;9.25;1.60;;;;;;;;;;4990318;28;20376;-82
2022/10/11 14:27:56;;;;;;;12.55;2.03;;;;;;;;;;4994158;28;20469;-82
2022/10/11 14:30:23;;;;;;;8.90;1.60;;;;;;;;;;4989009;28;20066;-82
2022/10/11 14:32:50;;;;;;;11.55;1.50;;;;;;;;;;4991269;28;20484;-83
2022/10/11 14:35:16;;;;;;;11.63;1.55;;;;;;;;;;5012133;28;20022;-83
2022/10/11 14:37:42;;;;;;;10.18;1.92;;;;;;;;;;5005146;28;20023;-82
2022/10/11 14:40:11;;;;;;;7.95;1.50;;;;;;;;;;4992194;28;20022;-82
2022/10/11 14:42:38;;;;;;;7.35;1.48;;;;;;;;;;4993697;28;20366;-82
2022/10/11 14:45:04;;;;;;;7.38;1.70;;;;;;;;;;4992311;28;20034;-82
2022/10/11 14:47:30;;;;;;;9.18;2.00;;;;;;;;;;4993815;28;20026;-82